This is the latest recevied weather packets stored in our database for station/object DG4CB-13. If no packets are shown the sender has not sent any weather packets the latest 10 day(s).
| Time | Temp. | Humidity | Pressure | Rain* | Wind** | Luminosity | Snow |
|---|---|---|---|---|---|---|---|
| 1777920000 | 15.56° C | 71% | 1011.1 hPa | - | - | - | - |
| 1777919399 | 16.11° C | 71% | 1011.2 hPa | - | - | - | - |
| 1777918800 | 16.11° C | 72% | 1011.1 hPa | - | - | - | - |
| 1777918199 | 16.11° C | 72% | 1011.2 hPa | - | - | - | - |
| 1777917599 | 16.11° C | 72% | 1011.2 hPa | - | - | - | - |
| 1777916999 | 16.11° C | 72% | 1011.2 hPa | - | - | - | - |
| 1777916399 | 16.11° C | 71% | 1011.2 hPa | - | - | - | - |
| 1777915799 | 16.67° C | 72% | 1011.2 hPa | - | - | - | - |
| 1777915199 | 16.67° C | 72% | 1011.2 hPa | - | - | - | - |
| 1777914599 | 16.67° C | 72% | 1011.2 hPa | - | - | - | - |
| 1777914000 | 16.67° C | 74% | 1011.3 hPa | - | - | - | - |
| 1777913399 | 16.67° C | 74% | 1011.4 hPa | - | - | - | - |
| 1777912799 | 16.67° C | 74% | 1011.5 hPa | - | - | - | - |
| 1777912199 | 16.67° C | 74% | 1011.4 hPa | - | - | - | - |
| 1777911599 | 16.67° C | 73% | 1011.4 hPa | - | - | - | - |
| 1777910999 | 16.67° C | 71% | 1011.6 hPa | - | - | - | - |
| 1777910399 | 16.67° C | 70% | 1011.7 hPa | - | - | - | - |
| 1777909799 | 17.22° C | 69% | 1011.9 hPa | - | - | - | - |
| 1777909200 | 17.22° C | 70% | 1011.7 hPa | - | - | - | - |
| 1777908600 | 17.22° C | 68% | 1011.7 hPa | - | - | - | - |
| 1777908000 | 17.22° C | 69% | 1011.6 hPa | - | - | - | - |
| 1777907400 | 17.78° C | 67% | 1011.6 hPa | - | - | - | - |
| 1777906800 | 18.33° C | 64% | 1011.6 hPa | - | - | - | - |
| 1777906199 | 20° C | 56% | 1011.6 hPa | - | - | - | - |
| 1777905599 | 22.22° C | 45% | 1011.2 hPa | - | - | - | - |
* Rain since midnight (hover to see other rain measurements)
** Current wind speed in m/s (hover to see current wind gust speed)